createdAt,value
2023-02-21T00:02:15.944Z,13.02
2023-02-21T00:04:32.795Z,12.98
2023-02-21T00:06:49.666Z,12.96
2023-02-21T00:09:06.681Z,12.94
2023-02-21T00:11:24.060Z,12.91
2023-02-21T00:13:40.959Z,12.91
2023-02-21T00:16:00.497Z,12.89
2023-02-21T00:18:17.394Z,12.88
2023-02-21T00:20:34.438Z,12.89
2023-02-21T00:22:51.434Z,12.89
2023-02-21T00:25:08.338Z,12.89
2023-02-21T00:27:25.205Z,12.87
2023-02-21T00:29:42.158Z,12.86
2023-02-21T00:32:01.694Z,12.86
2023-02-21T00:34:18.575Z,12.86
2023-02-21T00:36:35.528Z,12.84
2023-02-21T00:38:52.910Z,12.81
2023-02-21T00:41:09.814Z,12.80
2023-02-21T00:43:26.658Z,12.77
2023-02-21T00:45:43.551Z,12.74
2023-02-21T00:48:03.171Z,12.72
2023-02-21T00:50:20.423Z,12.71
2023-02-21T00:52:37.267Z,12.67
2023-02-21T00:54:54.121Z,12.65
2023-02-21T00:57:10.996Z,12.62
2023-02-21T00:59:27.901Z,12.61
2023-02-21T01:01:44.904Z,12.59
2023-02-21T01:04:04.497Z,12.59
2023-02-21T01:06:24.593Z,12.55
2023-02-21T01:08:42.726Z,12.53
2023-02-21T01:11:00.148Z,12.52
2023-02-21T01:13:18.184Z,12.52
2023-02-21T01:15:35.207Z,12.49
2023-02-21T01:17:52.297Z,12.48
2023-02-21T01:20:11.802Z,12.43
2023-02-21T01:22:28.692Z,12.40
2023-02-21T01:24:45.632Z,12.36
2023-02-21T01:27:02.674Z,12.35
2023-02-21T01:29:19.781Z,12.35
2023-02-21T01:31:36.845Z,12.35
2023-02-21T01:33:54.801Z,12.34
2023-02-21T01:36:14.277Z,12.33
2023-02-21T01:38:31.155Z,12.32
2023-02-21T01:40:49.058Z,12.31
2023-02-21T01:43:06.065Z,12.31
2023-02-21T01:45:37.998Z,12.31
2023-02-21T01:47:54.868Z,12.29
2023-02-21T01:50:11.865Z,12.30
2023-02-21T01:52:31.528Z,12.29
2023-02-21T01:54:53.420Z,12.29
2023-02-21T01:57:11.763Z,12.29
2023-02-21T01:59:29.248Z,12.30
2023-02-21T02:02:02.231Z,12.29
2023-02-21T02:04:19.488Z,12.30
2023-02-21T02:06:36.367Z,12.30
2023-02-21T02:08:55.908Z,12.30
2023-02-21T02:11:15.566Z,12.29
2023-02-21T02:13:25.382Z,12.28
2023-02-21T02:15:41.440Z,12.29
2023-02-21T02:17:57.440Z,12.27
2023-02-21T02:20:16.858Z,12.27
2023-02-21T02:22:42.198Z,12.26
2023-02-21T02:24:57.304Z,12.27
2023-02-21T02:27:09.907Z,12.25
2023-02-21T02:29:26.484Z,12.25
2023-02-21T02:31:41.563Z,12.26
2023-02-21T02:34:01.112Z,12.22
2023-02-21T02:36:09.867Z,12.20
2023-02-21T02:38:19.576Z,12.18
2023-02-21T02:40:30.480Z,12.15
2023-02-21T02:42:41.728Z,12.18
2023-02-21T02:44:50.173Z,12.19
2023-02-21T02:46:55.705Z,12.19
2023-02-21T02:49:02.987Z,12.18
2023-02-21T02:51:12.513Z,12.18
2023-02-21T02:53:19.393Z,12.18
2023-02-21T02:55:29.123Z,12.20
2023-02-21T02:57:40.978Z,12.21
2023-02-21T02:59:47.541Z,12.21
2023-02-21T03:02:02.237Z,12.25
2023-02-21T03:04:14.161Z,12.26
2023-02-21T03:06:29.223Z,12.26
2023-02-21T03:08:41.841Z,12.25
2023-02-21T03:10:49.152Z,12.24
2023-02-21T03:12:58.822Z,12.24
2023-02-21T03:15:06.324Z,12.23
2023-02-21T03:17:13.800Z,12.22
2023-02-21T03:19:20.698Z,12.19
2023-02-21T03:21:29.829Z,12.14
2023-02-21T03:23:35.843Z,12.11
2023-02-21T03:25:42.014Z,12.08
2023-02-21T03:27:47.645Z,12.04
2023-02-21T03:30:03.554Z,12.01
2023-02-21T03:32:13.478Z,11.99
2023-02-21T03:34:18.163Z,11.93
2023-02-21T03:36:23.008Z,11.90
2023-02-21T03:38:30.389Z,11.83
2023-02-21T03:40:36.351Z,11.82
2023-02-21T03:42:41.329Z,11.81
2023-02-21T03:44:45.823Z,11.82
2023-02-21T03:46:50.298Z,11.82
2023-02-21T03:48:55.286Z,11.83
2023-02-21T03:51:04.753Z,11.83
2023-02-21T03:53:13.860Z,11.83
2023-02-21T03:55:23.772Z,11.83
2023-02-21T03:57:29.332Z,11.82
2023-02-21T03:59:33.777Z,11.81
2023-02-21T04:01:38.392Z,11.81
2023-02-21T04:03:43.395Z,11.80
2023-02-21T04:05:48.111Z,11.79
2023-02-21T04:07:52.585Z,11.78
2023-02-21T04:09:57.090Z,11.77
2023-02-21T04:12:14.265Z,11.76
2023-02-21T04:14:18.900Z,11.75
2023-02-21T04:16:23.587Z,11.72
2023-02-21T04:18:30.124Z,11.71
2023-02-21T04:20:38.064Z,11.70
2023-02-21T04:22:51.809Z,11.69
2023-02-21T04:25:03.483Z,11.66
2023-02-21T04:27:17.044Z,11.62
2023-02-21T04:29:27.612Z,11.61
2023-02-21T04:31:32.577Z,11.58
2023-02-21T04:33:40.337Z,11.55
2023-02-21T04:35:46.283Z,11.53
2023-02-21T04:37:59.871Z,11.52
2023-02-21T04:40:04.407Z,11.52
2023-02-21T04:42:12.296Z,11.53
2023-02-21T04:44:19.769Z,11.52
2023-02-21T04:46:24.282Z,11.51
2023-02-21T04:48:29.781Z,11.48
2023-02-21T04:50:34.132Z,11.47
2023-02-21T04:52:41.299Z,11.45
2023-02-21T04:54:45.801Z,11.45
2023-02-21T04:56:50.477Z,11.42
2023-02-21T04:58:54.928Z,11.40
2023-02-21T05:01:02.200Z,11.41
2023-02-21T05:03:06.586Z,11.39
2023-02-21T05:05:11.475Z,11.38
2023-02-21T05:07:16.145Z,11.37
2023-02-21T05:09:20.576Z,11.35
2023-02-21T05:11:25.870Z,11.33
2023-02-21T05:13:30.283Z,11.32
2023-02-21T05:15:34.715Z,11.31
2023-02-21T05:17:41.707Z,11.26
2023-02-21T05:19:46.129Z,11.23
2023-02-21T05:21:50.759Z,11.21
2023-02-21T05:24:01.282Z,11.18
2023-02-21T05:26:06.782Z,11.18
2023-02-21T05:28:11.185Z,11.18
2023-02-21T05:30:17.045Z,11.20
2023-02-21T05:32:23.216Z,11.22
2023-02-21T05:34:30.257Z,11.22
2023-02-21T05:36:34.679Z,11.20
2023-02-21T05:38:47.037Z,11.17
2023-02-21T05:40:51.403Z,11.17
2023-02-21T05:42:55.892Z,11.15
2023-02-21T05:45:00.322Z,11.13
2023-02-21T05:47:07.227Z,11.12
2023-02-21T05:49:11.855Z,11.12
2023-02-21T05:51:19.501Z,11.11
2023-02-21T05:53:23.866Z,11.09
2023-02-21T05:55:28.407Z,11.08
2023-02-21T05:57:32.808Z,11.09
2023-02-21T05:59:37.281Z,11.09
2023-02-21T06:01:41.741Z,11.10
2023-02-21T06:03:46.471Z,11.10
2023-02-21T06:05:50.941Z,11.11
2023-02-21T06:07:57.961Z,11.10
2023-02-21T06:10:02.357Z,11.09
2023-02-21T06:12:07.250Z,11.07
2023-02-21T06:14:16.060Z,11.03
2023-02-21T06:16:20.599Z,10.99
2023-02-21T06:18:24.960Z,10.97
2023-02-21T06:20:29.685Z,10.97
2023-02-21T06:22:34.100Z,10.97
2023-02-21T06:24:41.110Z,10.97
2023-02-21T06:26:45.531Z,10.97
2023-02-21T06:28:50.441Z,10.99
2023-02-21T06:30:54.945Z,10.99
2023-02-21T06:32:59.492Z,10.99
2023-02-21T06:35:04.030Z,11.00
2023-02-21T06:37:08.806Z,10.99
2023-02-21T06:39:13.395Z,11.00
2023-02-21T06:41:24.597Z,11.02
2023-02-21T06:43:29.013Z,11.02
2023-02-21T06:45:33.495Z,11.04
2023-02-21T06:47:38.134Z,11.05
2023-02-21T06:49:42.650Z,11.05
2023-02-21T06:51:47.105Z,11.08
2023-02-21T06:53:52.694Z,11.09
2023-02-21T06:55:57.054Z,11.11
2023-02-21T06:58:04.258Z,11.15
2023-02-21T07:00:09.381Z,11.15
2023-02-21T07:02:18.400Z,11.18
2023-02-21T07:04:22.939Z,11.21
2023-02-21T07:06:29.804Z,11.23
2023-02-21T07:08:34.528Z,11.26
2023-02-21T07:10:39.224Z,11.30
2023-02-21T07:12:43.863Z,11.31
2023-02-21T07:14:50.933Z,11.32
2023-02-21T07:16:55.443Z,11.32
2023-02-21T07:19:00.099Z,11.34
2023-02-21T07:21:04.540Z,11.34
2023-02-21T07:23:09.259Z,11.39
2023-02-21T07:25:16.919Z,11.46
2023-02-21T07:27:21.428Z,11.55
2023-02-21T07:29:26.030Z,11.61
2023-02-21T07:31:33.306Z,11.67
2023-02-21T07:33:37.755Z,11.73
2023-02-21T07:35:42.393Z,11.77
2023-02-21T07:37:46.999Z,11.81
2023-02-21T07:39:51.445Z,11.86
2023-02-21T07:41:56.573Z,11.90
2023-02-21T07:44:07.940Z,11.93
2023-02-21T07:46:13.502Z,11.96
2023-02-21T07:48:20.860Z,12.00
2023-02-21T07:50:25.348Z,12.03
2023-02-21T07:52:30.140Z,12.07
2023-02-21T07:54:34.665Z,12.08
2023-02-21T07:56:39.247Z,12.10
2023-02-21T07:58:43.706Z,12.13
2023-02-21T08:00:48.249Z,12.17
2023-02-21T08:02:52.863Z,12.20
2023-02-21T08:05:00.058Z,12.26
2023-02-21T08:07:05.410Z,12.28
2023-02-21T08:09:09.889Z,12.32
2023-02-21T08:11:14.634Z,12.36
2023-02-21T08:13:19.490Z,12.41
2023-02-21T08:15:24.021Z,12.42
2023-02-21T08:17:28.890Z,12.43
2023-02-21T08:19:33.338Z,12.47
2023-02-21T08:21:40.882Z,12.51
2023-02-21T08:23:45.323Z,12.55
2023-02-21T08:25:50.246Z,12.58
2023-02-21T08:27:55.521Z,12.63
2023-02-21T08:30:00.242Z,12.68
2023-02-21T08:32:05.180Z,12.74
2023-02-21T08:34:10.641Z,12.80
2023-02-21T08:36:15.041Z,12.87
2023-02-21T08:38:23.741Z,12.93
2023-02-21T08:40:28.262Z,12.99
2023-02-21T08:42:32.792Z,13.05
2023-02-21T08:44:37.205Z,13.10
2023-02-21T08:46:42.283Z,13.15
2023-02-21T08:48:46.699Z,13.19
2023-02-21T08:50:52.277Z,13.25
2023-02-21T08:52:57.176Z,13.28
2023-02-21T08:55:04.289Z,13.33
2023-02-21T08:57:08.909Z,13.39
2023-02-21T08:59:13.796Z,13.44
2023-02-21T09:01:19.069Z,13.51
2023-02-21T09:03:24.080Z,13.57
2023-02-21T09:05:29.815Z,13.64
2023-02-21T09:07:34.978Z,13.75
2023-02-21T09:09:40.519Z,13.86
2023-02-21T09:11:49.774Z,13.95
2023-02-21T09:13:55.648Z,14.04
2023-02-21T09:16:00.426Z,14.12
2023-02-21T09:18:06.597Z,14.22
2023-02-21T09:20:12.712Z,14.33
2023-02-21T09:22:18.536Z,14.43
2023-02-21T09:24:25.455Z,14.51
2023-02-21T09:26:32.204Z,14.57
2023-02-21T09:28:43.909Z,14.62
2023-02-21T09:30:48.681Z,14.69
2023-02-21T09:32:54.808Z,14.75
2023-02-21T09:34:59.862Z,14.81
2023-02-21T09:37:07.160Z,14.90
2023-02-21T09:39:14.171Z,14.99
2023-02-21T09:41:19.223Z,15.11
2023-02-21T09:43:26.564Z,15.21
2023-02-21T09:45:35.324Z,15.29
2023-02-21T09:47:40.301Z,15.35
2023-02-21T09:49:46.794Z,15.41
2023-02-21T09:51:51.560Z,15.46
2023-02-21T09:53:57.604Z,15.53
2023-02-21T09:56:03.798Z,15.63
2023-02-21T09:58:09.007Z,15.70
2023-02-21T10:00:20.260Z,15.75
2023-02-21T10:02:39.888Z,15.79
2023-02-21T10:04:53.626Z,15.85
2023-02-21T10:07:00.505Z,15.91
2023-02-21T10:09:09.397Z,15.97
2023-02-21T10:11:23.465Z,16.02
2023-02-21T10:13:37.774Z,16.08
2023-02-21T10:15:45.378Z,16.12
2023-02-21T10:17:56.865Z,16.19
2023-02-21T10:20:04.526Z,16.25
2023-02-21T10:22:16.130Z,16.31
2023-02-21T10:24:22.561Z,16.40
2023-02-21T10:26:28.127Z,16.48
2023-02-21T10:28:43.892Z,16.56
2023-02-21T10:30:49.254Z,16.64
2023-02-21T10:32:57.280Z,16.69
2023-02-21T10:35:02.253Z,16.73
2023-02-21T10:37:10.245Z,16.78
2023-02-21T10:39:24.904Z,16.83
2023-02-21T10:41:32.158Z,16.90
2023-02-21T10:43:38.624Z,16.96
2023-02-21T10:45:54.819Z,17.03
2023-02-21T10:48:04.589Z,17.12
2023-02-21T10:50:14.575Z,17.18
2023-02-21T10:52:28.908Z,17.26
2023-02-21T10:54:35.372Z,17.35
2023-02-21T10:56:41.948Z,17.44
2023-02-21T10:58:53.176Z,17.51
2023-02-21T11:01:16.848Z,17.60
2023-02-21T11:03:30.939Z,17.67
2023-02-21T11:05:35.701Z,17.74
2023-02-21T11:07:43.680Z,17.80
2023-02-21T11:09:50.869Z,17.87
2023-02-21T11:12:04.349Z,17.92
2023-02-21T11:14:26.138Z,17.97
2023-02-21T11:16:32.723Z,18.02
2023-02-21T11:18:40.219Z,18.07
2023-02-21T11:20:45.144Z,18.13
2023-02-21T11:22:50.663Z,18.20
2023-02-21T11:25:03.297Z,18.26
2023-02-21T11:27:08.970Z,18.35
2023-02-21T11:29:16.472Z,18.42
2023-02-21T11:31:23.639Z,18.49
2023-02-21T11:33:28.552Z,18.56
2023-02-21T11:35:37.879Z,18.63
2023-02-21T11:37:51.956Z,18.70
2023-02-21T11:39:56.706Z,18.76
2023-02-21T11:42:03.351Z,18.82
2023-02-21T11:44:25.698Z,18.87
2023-02-21T11:46:39.250Z,18.93
2023-02-21T11:48:48.592Z,18.98
2023-02-21T11:50:56.665Z,19.04
2023-02-21T11:53:05.391Z,19.07
2023-02-21T11:55:15.878Z,19.09
2023-02-21T11:57:23.455Z,19.09
2023-02-21T11:59:35.908Z,19.09
2023-02-21T12:01:47.064Z,19.09
2023-02-21T12:03:59.623Z,19.10
2023-02-21T12:06:09.877Z,19.11
2023-02-21T12:08:23.438Z,19.10
2023-02-21T12:10:36.724Z,19.12
2023-02-21T12:12:44.812Z,19.15
2023-02-21T12:15:02.466Z,19.19
2023-02-21T12:17:15.236Z,19.23
2023-02-21T12:19:30.133Z,19.28
2023-02-21T12:21:49.675Z,19.34
2023-02-21T12:23:58.014Z,19.40
2023-02-21T12:26:09.036Z,19.42
2023-02-21T12:28:21.891Z,19.42
2023-02-21T12:30:37.644Z,19.43
2023-02-21T12:32:52.754Z,19.45
2023-02-21T12:35:06.094Z,19.46
2023-02-21T12:37:18.502Z,19.46
2023-02-21T12:39:35.921Z,19.47
2023-02-21T12:41:46.319Z,19.48
2023-02-21T12:43:54.873Z,19.50
2023-02-21T12:46:04.913Z,19.52
2023-02-21T12:48:14.702Z,19.57
2023-02-21T12:50:23.900Z,19.61
2023-02-21T12:52:33.609Z,19.65
2023-02-21T12:54:43.399Z,19.68
2023-02-21T12:56:50.077Z,19.69
2023-02-21T12:58:58.333Z,19.71
2023-02-21T13:01:10.789Z,19.74
2023-02-21T13:03:19.506Z,19.75
2023-02-21T13:05:28.541Z,19.76
2023-02-21T13:07:38.268Z,19.77
2023-02-21T13:09:46.104Z,19.78
2023-02-21T13:11:57.832Z,19.80
2023-02-21T13:14:03.445Z,19.84
2023-02-21T13:16:10.739Z,19.85
2023-02-21T13:18:20.941Z,19.84
2023-02-21T13:20:27.203Z,19.86
2023-02-21T13:22:33.329Z,19.91
2023-02-21T13:24:48.878Z,19.96
2023-02-21T13:27:00.083Z,20.01
2023-02-21T13:29:04.925Z,20.09
2023-02-21T13:31:11.450Z,20.15
2023-02-21T13:33:26.043Z,20.22
2023-02-21T13:35:34.531Z,20.28
2023-02-21T13:37:47.614Z,20.33
2023-02-21T13:39:58.901Z,20.36
2023-02-21T13:42:07.173Z,20.39
2023-02-21T13:44:13.826Z,20.45
2023-02-21T13:46:28.598Z,20.49
2023-02-21T13:48:33.578Z,20.51
2023-02-21T13:50:48.245Z,20.47
2023-02-21T13:52:55.212Z,20.44
2023-02-21T13:55:23.097Z,20.39
2023-02-21T13:57:33.757Z,20.33
2023-02-21T13:59:38.982Z,20.30
2023-02-21T14:01:45.151Z,20.30
2023-02-21T14:03:50.210Z,20.31
2023-02-21T14:06:09.790Z,20.32
2023-02-21T14:08:15.909Z,20.30
2023-02-21T14:19:08.590Z,20.32
2023-02-21T14:21:19.920Z,20.31
2023-02-21T14:23:26.928Z,20.30
2023-02-21T14:25:37.284Z,20.28
2023-02-21T14:27:41.956Z,20.27
2023-02-21T14:29:47.499Z,20.25
2023-02-21T14:31:58.473Z,20.25
2023-02-21T14:34:03.237Z,20.21
2023-02-21T14:36:09.263Z,20.20
2023-02-21T14:38:23.593Z,20.23
2023-02-21T14:40:34.292Z,20.25
2023-02-21T14:43:02.495Z,20.22
2023-02-21T15:03:40.781Z,20.03
2023-02-21T15:05:48.013Z,20.06
2023-02-21T15:07:56.713Z,20.08
2023-02-21T15:10:10.708Z,20.08
2023-02-21T15:12:18.165Z,20.05
2023-02-21T15:14:27.240Z,20.03
2023-02-21T15:16:34.737Z,20.02
2023-02-21T15:18:42.544Z,19.99
2023-02-21T15:20:47.179Z,19.98
2023-02-21T15:22:58.100Z,19.96
2023-02-21T15:25:05.052Z,19.95
2023-02-21T15:27:13.569Z,19.95
2023-02-21T15:29:19.102Z,19.92
2023-02-21T15:31:24.244Z,19.89
2023-02-21T15:33:29.321Z,19.85
2023-02-21T15:35:38.776Z,19.81
2023-02-21T15:37:44.151Z,19.79
2023-02-21T15:39:55.512Z,19.79
2023-02-21T15:42:01.085Z,19.75
2023-02-21T15:44:08.547Z,19.73
2023-02-21T15:46:16.621Z,19.71
2023-02-21T15:48:21.316Z,19.71
2023-02-21T15:50:32.269Z,19.67
2023-02-21T15:52:41.277Z,19.66
2023-02-21T15:54:46.115Z,19.63
2023-02-21T15:56:50.919Z,19.59
2023-02-21T15:59:11.495Z,19.57
2023-02-21T16:01:17.012Z,19.52
2023-02-21T16:03:32.416Z,19.48
2023-02-21T16:05:36.981Z,19.42
2023-02-21T16:07:49.183Z,19.40
2023-02-21T16:26:28.771Z,19.22
2023-02-21T16:28:34.236Z,19.19
2023-02-21T16:30:39.597Z,19.17
2023-02-21T16:32:45.383Z,19.14
2023-02-21T16:34:50.742Z,19.11
2023-02-21T16:37:04.156Z,19.08
2023-02-21T16:39:09.170Z,19.05
2023-02-21T16:41:16.318Z,19.02
2023-02-21T16:43:24.490Z,18.98
2023-02-21T16:45:29.081Z,18.96
2023-02-21T16:47:33.679Z,18.93
2023-02-21T16:49:38.264Z,18.91
2023-02-21T16:51:43.844Z,18.88
2023-02-21T16:53:48.906Z,18.87
2023-02-21T16:55:54.045Z,18.83
2023-02-21T16:58:04.096Z,18.79
2023-02-21T17:00:13.004Z,18.73
2023-02-21T17:02:17.711Z,18.69
2023-02-21T17:04:24.070Z,18.62
2023-02-21T17:06:29.987Z,18.59
2023-02-21T17:08:34.600Z,18.55
2023-02-21T17:10:39.306Z,18.51
2023-02-21T17:12:44.255Z,18.45
2023-02-21T17:14:48.807Z,18.39
2023-02-21T17:16:58.519Z,18.32
2023-02-21T17:19:03.049Z,18.25
2023-02-21T17:21:08.005Z,18.20
2023-02-21T17:23:12.566Z,18.14
2023-02-21T17:25:18.030Z,18.11
2023-02-21T17:27:22.596Z,18.06
2023-02-21T17:29:27.435Z,18.00
2023-02-21T17:31:32.046Z,17.95
2023-02-21T17:33:40.323Z,17.88
2023-02-21T17:35:45.113Z,17.79
2023-02-21T17:37:50.296Z,17.72
2023-02-21T17:39:55.210Z,17.66
2023-02-21T17:41:59.974Z,17.60
2023-02-21T17:44:04.549Z,17.56
2023-02-21T17:46:12.376Z,17.54
2023-02-21T17:48:17.057Z,17.51
2023-02-21T17:50:25.718Z,17.50
2023-02-21T17:52:30.914Z,17.48
2023-02-21T17:54:35.506Z,17.45
2023-02-21T17:56:40.062Z,17.38
2023-02-21T17:58:44.795Z,17.34
2023-02-21T18:00:49.347Z,17.27
2023-02-21T18:02:54.267Z,17.20
2023-02-21T18:04:59.084Z,17.13
2023-02-21T18:07:06.584Z,17.07
2023-02-21T18:09:11.322Z,17.02
2023-02-21T18:11:17.287Z,16.97
2023-02-21T18:13:23.333Z,16.95
2023-02-21T18:15:30.231Z,16.90
2023-02-21T18:17:34.876Z,16.87
2023-02-21T18:19:39.526Z,16.82
2023-02-21T18:21:44.097Z,16.76
2023-02-21T18:23:52.018Z,16.70
2023-02-21T18:25:56.804Z,16.67
2023-02-21T18:28:01.468Z,16.63
2023-02-21T18:30:06.278Z,16.61
2023-02-21T18:32:11.013Z,16.58
2023-02-21T18:34:15.565Z,16.56
2023-02-21T18:36:20.331Z,16.52
2023-02-21T18:38:25.127Z,16.49
2023-02-21T18:40:44.655Z,16.44
2023-02-21T18:42:49.408Z,16.38
2023-02-21T18:44:54.290Z,16.35
2023-02-21T18:46:59.456Z,16.31
2023-02-21T18:49:04.211Z,16.26
2023-02-21T18:51:15.555Z,16.23
2023-02-21T18:53:20.714Z,16.20
2023-02-21T18:55:25.386Z,16.19
2023-02-21T18:57:34.450Z,16.18
2023-02-21T18:59:39.285Z,16.16
2023-02-21T19:01:43.974Z,16.13
2023-02-21T19:03:48.564Z,16.08
2023-02-21T19:05:53.567Z,16.04
2023-02-21T19:07:59.473Z,16.00
2023-02-21T19:10:04.115Z,15.95
2023-02-21T19:12:09.722Z,15.91
2023-02-21T19:17:06.221Z,15.74
2023-02-21T19:19:12.231Z,15.65
2023-02-21T19:21:17.242Z,15.57
2023-02-21T19:23:21.987Z,15.48
2023-02-21T19:25:28.376Z,15.40
2023-02-21T19:27:33.137Z,15.34
2023-02-21T19:29:37.931Z,15.31
2023-02-21T19:31:42.676Z,15.30
2023-02-21T19:33:50.041Z,15.30
2023-02-21T19:35:54.741Z,15.28
2023-02-21T19:37:59.715Z,15.28
2023-02-21T19:40:07.913Z,15.27
2023-02-21T19:42:13.201Z,15.25
2023-02-21T19:44:18.116Z,15.24
2023-02-21T19:46:23.725Z,15.22
2023-02-21T19:48:28.300Z,15.17
2023-02-21T19:50:36.273Z,15.14
2023-02-21T19:52:40.841Z,15.11
2023-02-21T19:54:45.552Z,15.07
2023-02-21T19:56:50.393Z,15.01
2023-02-21T19:58:55.221Z,14.97
2023-02-21T20:00:59.918Z,14.91
2023-02-21T20:03:04.911Z,14.82
2023-02-21T20:05:10.518Z,14.74
2023-02-21T20:07:18.201Z,14.67
2023-02-21T20:09:22.756Z,14.58
2023-02-21T20:11:27.379Z,14.51
2023-02-21T20:13:31.955Z,14.43
2023-02-21T20:15:37.241Z,14.38
2023-02-21T20:17:42.512Z,14.32
2023-02-21T20:19:47.248Z,14.27
2023-02-21T20:21:51.974Z,14.25
2023-02-21T20:24:00.195Z,14.25
2023-02-21T20:26:04.826Z,14.26
2023-02-21T20:28:09.984Z,14.26
2023-02-21T20:30:15.366Z,14.27
2023-02-21T20:32:20.094Z,14.29
2023-02-21T20:34:24.791Z,14.28
2023-02-21T20:36:30.176Z,14.27
2023-02-21T20:38:34.825Z,14.25
2023-02-21T20:40:42.202Z,14.22
2023-02-21T20:42:46.826Z,14.19
2023-02-21T20:44:51.501Z,14.15
2023-02-21T20:46:56.161Z,14.12
2023-02-21T20:49:02.105Z,14.09
2023-02-21T20:51:07.843Z,14.05
2023-02-21T20:53:12.958Z,14.01
2023-02-21T20:55:19.563Z,13.99
2023-02-21T20:57:26.822Z,13.98
2023-02-21T20:59:32.318Z,13.96
2023-02-21T21:01:37.734Z,13.96
2023-02-21T21:03:42.362Z,13.95
2023-02-21T21:05:48.197Z,13.94
2023-02-21T21:07:55.789Z,13.91
2023-02-21T21:10:00.404Z,13.92
2023-02-21T21:12:05.912Z,13.88
2023-02-21T21:14:16.322Z,13.86
2023-02-21T21:16:21.512Z,13.84
2023-02-21T21:18:27.189Z,13.83
2023-02-21T21:20:34.893Z,13.85
2023-02-21T21:22:39.466Z,13.86
2023-02-21T21:24:44.416Z,13.86
2023-02-21T21:26:53.811Z,13.87
2023-02-21T21:28:58.894Z,13.87
2023-02-21T21:31:09.024Z,13.87
2023-02-21T21:33:18.999Z,13.86
2023-02-21T21:35:30.036Z,13.84
2023-02-21T21:37:35.296Z,13.83
2023-02-21T21:39:40.343Z,13.81
2023-02-21T21:41:46.687Z,13.78
2023-02-21T21:43:51.354Z,13.74
2023-02-21T21:45:56.077Z,13.69
2023-02-21T21:48:03.296Z,13.62
2023-02-21T21:50:08.377Z,13.54
2023-02-21T21:52:13.239Z,13.52
2023-02-21T21:54:20.731Z,13.52
2023-02-21T21:56:27.384Z,13.51
2023-02-21T21:58:33.908Z,13.52
2023-02-21T22:00:42.216Z,13.52
2023-02-21T22:02:47.476Z,13.49
2023-02-21T22:04:55.099Z,13.46
2023-02-21T22:07:01.046Z,13.44
2023-02-21T22:09:06.644Z,13.41
2023-02-21T22:11:11.829Z,13.41
2023-02-21T22:13:20.863Z,13.39
2023-02-21T22:15:26.909Z,13.39
2023-02-21T22:17:31.595Z,13.39
2023-02-21T22:19:37.008Z,13.38
2023-02-21T22:21:44.483Z,13.36
2023-02-21T22:23:49.114Z,13.34
2023-02-21T22:25:54.028Z,13.33
2023-02-21T22:27:59.301Z,13.33
2023-02-21T22:30:04.137Z,13.32
2023-02-21T22:32:10.257Z,13.28
2023-02-21T22:34:23.623Z,13.25
2023-02-21T22:36:28.911Z,13.23
2023-02-21T22:38:36.191Z,13.21
2023-02-21T22:40:40.745Z,13.19
2023-02-21T22:42:45.277Z,13.18
2023-02-21T22:44:51.097Z,13.15
2023-02-21T22:46:59.478Z,13.11
2023-02-21T22:49:04.038Z,13.08
2023-02-21T22:51:09.258Z,13.06
2023-02-21T22:53:19.056Z,13.05
2023-02-21T22:55:27.484Z,13.02
2023-02-21T22:57:32.927Z,13.00
2023-02-21T22:59:37.727Z,12.99
2023-02-21T23:01:42.292Z,12.96
2023-02-21T23:03:46.875Z,12.95
2023-02-21T23:05:52.457Z,12.92
2023-02-21T23:07:58.712Z,12.92
2023-02-21T23:10:03.792Z,12.89
2023-02-21T23:12:11.009Z,12.87
2023-02-21T23:14:15.797Z,12.85
2023-02-21T23:16:22.095Z,12.81
2023-02-21T23:18:27.543Z,12.78
2023-02-21T23:20:33.923Z,12.73
2023-02-21T23:22:38.495Z,12.72
2023-02-21T23:24:46.042Z,12.72
2023-02-21T23:26:51.070Z,12.72
2023-02-21T23:28:58.415Z,12.70
2023-02-21T23:31:04.916Z,12.69
2023-02-21T23:33:10.798Z,12.66
2023-02-21T23:35:16.792Z,12.64
2023-02-21T23:37:21.472Z,12.61
2023-02-21T23:39:26.000Z,12.58
2023-02-21T23:41:34.440Z,12.57
2023-02-21T23:43:40.144Z,12.55
2023-02-21T23:45:50.813Z,12.54
2023-02-21T23:47:57.406Z,12.51
2023-02-21T23:50:01.928Z,12.49
2023-02-21T23:52:06.886Z,12.46
2023-02-21T23:54:13.712Z,12.45
2023-02-21T23:56:18.672Z,12.44
2023-02-21T23:58:23.304Z,12.44
